Time;durP1;ratioP1;P1;durP2;ratioP2;P2;SDS_P1;SDS_P2;PMS_P1;PMS_P2;Temp;Humidity;BMP_temperature;BMP_pressure;BME280_temperature;BME280_humidity;BME280_pressure;Samples;Min_cycle;Max_cycle;Signal;HPM_P1;HPM_P2
2023/08/20 00:00:35;;;;;;;0.00;0.00;;;;;;;;;;1719482;28;20575;-81
2023/08/20 00:01:28;;;;;;;0.00;0.00;;;;;;;;;;1726340;28;20467;-81
2023/08/20 00:02:20;;;;;;;0.00;0.00;;;;;;;;;;1727999;28;21036;-81
2023/08/20 00:03:11;;;;;;;0.00;0.00;;;;;;;;;;1730406;28;20474;-81
2023/08/20 00:04:04;;;;;;;0.00;0.00;;;;;;;;;;1729155;28;20816;-81
2023/08/20 00:04:56;;;;;;;0.00;0.00;;;;;;;;;;1726855;28;20462;-81
2023/08/20 00:05:47;;;;;;;0.00;0.00;;;;;;;;;;1728242;28;20486;-81
2023/08/20 00:06:42;;;;;;;0.00;0.00;;;;;;;;;;1728985;28;20458;-81
2023/08/20 00:07:34;;;;;;;0.00;0.00;;;;;;;;;;1730614;28;20839;-81
2023/08/20 00:08:26;;;;;;;0.00;0.00;;;;;;;;;;1728341;28;20463;-82
2023/08/20 00:09:17;;;;;;;0.00;0.00;;;;;;;;;;1726329;28;20497;-82
2023/08/20 00:10:09;;;;;;;0.00;0.00;;;;;;;;;;1726121;28;20470;-82
2023/08/20 00:11:00;;;;;;;0.00;0.00;;;;;;;;;;1725701;28;20478;-81
2023/08/20 00:11:52;;;;;;;0.00;0.00;;;;;;;;;;1728032;28;20504;-81
2023/08/20 00:12:45;;;;;;;0.00;0.00;;;;;;;;;;1726970;28;20989;-81
2023/08/20 00:13:36;;;;;;;0.00;0.00;;;;;;;;;;1726701;28;20569;-81
2023/08/20 00:14:43;;;;;;;0.00;0.00;;;;;;;;;;1727043;28;20462;-81
2023/08/20 00:15:34;;;;;;;0.00;0.00;;;;;;;;;;1727294;28;20546;-81
2023/08/20 00:16:26;;;;;;;0.00;0.00;;;;;;;;;;1729874;28;20465;-81
2023/08/20 00:17:17;;;;;;;0.00;0.00;;;;;;;;;;1727704;28;20569;-81
2023/08/20 00:18:09;;;;;;;0.00;0.00;;;;;;;;;;1726688;28;20536;-81
2023/08/20 00:19:02;;;;;;;0.00;0.00;;;;;;;;;;1729328;28;20463;-81
2023/08/20 00:19:53;;;;;;;0.00;0.00;;;;;;;;;;1727287;28;20549;-81
2023/08/20 00:20:45;;;;;;;0.00;0.00;;;;;;;;;;1725617;28;20474;-81
2023/08/20 00:21:41;;;;;;;0.00;0.00;;;;;;;;;;1726527;28;20481;-81
2023/08/20 00:22:32;;;;;;;0.00;0.00;;;;;;;;;;1726434;28;20464;-81
2023/08/20 00:23:23;;;;;;;0.00;0.00;;;;;;;;;;1726387;28;20940;-81
2023/08/20 00:24:16;;;;;;;0.00;0.00;;;;;;;;;;1727622;28;20660;-81
2023/08/20 00:25:07;;;;;;;0.00;0.00;;;;;;;;;;1727529;28;20584;-81
2023/08/20 00:25:59;;;;;;;0.00;0.00;;;;;;;;;;1725207;28;21019;-81
2023/08/20 00:26:51;;;;;;;0.00;0.00;;;;;;;;;;1729719;28;20919;-81
2023/08/20 00:27:43;;;;;;;0.00;0.00;;;;;;;;;;1731505;28;20462;-81
2023/08/20 00:28:38;;;;;;;0.00;0.00;;;;;;;;;;1729699;28;20470;-81
2023/08/20 00:29:30;;;;;;;0.00;0.00;;;;;;;;;;1727335;28;20472;-81
2023/08/20 00:30:21;;;;;;;0.00;0.00;;;;;;;;;;1727689;28;20493;-81
2023/08/20 00:31:12;;;;;;;0.00;0.00;;;;;;;;;;1730595;28;20461;-82
2023/08/20 00:32:04;;;;;;;0.00;0.00;;;;;;;;;;1725951;28;20501;-81
2023/08/20 00:32:55;;;;;;;0.00;0.00;;;;;;;;;;1726889;28;20459;-82
2023/08/20 00:33:47;;;;;;;0.00;0.00;;;;;;;;;;1726845;28;20920;-81
2023/08/20 00:34:40;;;;;;;0.00;0.00;;;;;;;;;;1726443;28;20471;-81
2023/08/20 00:35:31;;;;;;;0.00;0.00;;;;;;;;;;1726682;28;20499;-81
2023/08/20 00:36:23;;;;;;;0.00;0.00;;;;;;;;;;1726811;28;20483;-81
2023/08/20 00:37:14;;;;;;;0.00;0.00;;;;;;;;;;1727157;28;20463;-81
2023/08/20 00:38:05;;;;;;;0.00;0.00;;;;;;;;;;1726821;28;20471;-81
2023/08/20 00:38:57;;;;;;;0.00;0.00;;;;;;;;;;1733911;28;20481;-80
2023/08/20 00:39:48;;;;;;;0.00;0.00;;;;;;;;;;1722394;28;20491;-80
2023/08/20 00:40:39;;;;;;;0.00;0.00;;;;;;;;;;1727129;28;20882;-81
2023/08/20 00:41:32;;;;;;;0.00;0.00;;;;;;;;;;1729435;28;20246;-81
2023/08/20 00:42:25;;;;;;;0.00;0.00;;;;;;;;;;1728717;28;20526;-81
2023/08/20 00:43:16;;;;;;;0.00;0.00;;;;;;;;;;1727318;28;20549;-81
2023/08/20 00:44:09;;;;;;;0.00;0.00;;;;;;;;;;1727539;28;20497;-81
2023/08/20 00:45:00;;;;;;;0.00;0.00;;;;;;;;;;1728659;28;20459;-81
2023/08/20 00:45:53;;;;;;;0.00;0.00;;;;;;;;;;1731945;28;20528;-81
2023/08/20 00:46:44;;;;;;;0.00;0.00;;;;;;;;;;1729035;28;20501;-80
2023/08/20 00:47:35;;;;;;;0.00;0.00;;;;;;;;;;1728184;28;20537;-81
2023/08/20 00:48:27;;;;;;;0.00;0.00;;;;;;;;;;1727575;28;20554;-81
2023/08/20 00:49:18;;;;;;;0.00;0.00;;;;;;;;;;1728072;28;20467;-81
2023/08/20 00:50:10;;;;;;;0.00;0.00;;;;;;;;;;1727569;28;21227;-81
2023/08/20 00:51:03;;;;;;;0.00;0.00;;;;;;;;;;1726918;28;20242;-81
2023/08/20 00:51:54;;;;;;;0.00;0.00;;;;;;;;;;1729157;28;20919;-81
2023/08/20 00:52:47;;;;;;;0.00;0.00;;;;;;;;;;1727854;28;20204;-81
2023/08/20 00:53:38;;;;;;;0.00;0.00;;;;;;;;;;1730018;28;20528;-81
2023/08/20 00:54:30;;;;;;;0.00;0.00;;;;;;;;;;1727639;28;20637;-81
2023/08/20 00:55:21;;;;;;;0.00;0.00;;;;;;;;;;1725961;28;20464;-82
2023/08/20 00:56:13;;;;;;;0.00;0.00;;;;;;;;;;1727418;28;20481;-82
2023/08/20 00:57:04;;;;;;;0.00;0.00;;;;;;;;;;1730443;28;20523;-81
2023/08/20 00:57:56;;;;;;;0.00;0.00;;;;;;;;;;1727573;28;20463;-81
2023/08/20 00:58:48;;;;;;;0.00;0.00;;;;;;;;;;1727261;28;20477;-81
2023/08/20 00:59:41;;;;;;;0.00;0.00;;;;;;;;;;1726097;28;20462;-82
2023/08/20 01:00:33;;;;;;;0.00;0.00;;;;;;;;;;1723709;28;20468;-82
2023/08/20 01:01:24;;;;;;;0.00;0.00;;;;;;;;;;1727351;28;20581;-82
2023/08/20 01:02:15;;;;;;;0.00;0.00;;;;;;;;;;1727278;28;20498;-82
2023/08/20 01:03:07;;;;;;;0.00;0.00;;;;;;;;;;1727323;28;20463;-82
2023/08/20 01:03:58;;;;;;;0.00;0.00;;;;;;;;;;1729073;28;20299;-82
2023/08/20 01:04:50;;;;;;;0.00;0.00;;;;;;;;;;1723827;28;20576;-82
2023/08/20 01:05:52;;;;;;;0.00;0.00;;;;;;;;;;1729141;28;20228;-82
2023/08/20 01:06:47;;;;;;;0.00;0.00;;;;;;;;;;1729226;28;20463;-82
2023/08/20 01:07:44;;;;;;;0.00;0.00;;;;;;;;;;1727548;28;20582;-80
2023/08/20 01:08:38;;;;;;;0.00;0.00;;;;;;;;;;1728515;28;20335;-80
2023/08/20 01:09:35;;;;;;;0.00;0.00;;;;;;;;;;1729197;28;20209;-80
2023/08/20 01:10:30;;;;;;;0.00;0.00;;;;;;;;;;1726484;28;20204;-79
2023/08/20 01:11:26;;;;;;;0.00;0.00;;;;;;;;;;1724575;28;20254;-80
2023/08/20 01:12:18;;;;;;;0.00;0.00;;;;;;;;;;1732754;28;20506;-82
2023/08/20 01:13:10;;;;;;;0.00;0.00;;;;;;;;;;1732154;28;20568;-82
2023/08/20 01:14:01;;;;;;;0.00;0.00;;;;;;;;;;1728187;28;20287;-82
2023/08/20 01:14:55;;;;;;;0.00;0.00;;;;;;;;;;1727994;28;20239;-82
2023/08/20 01:15:47;;;;;;;0.00;0.00;;;;;;;;;;1727151;28;20244;-83
2023/08/20 01:16:38;;;;;;;0.00;0.00;;;;;;;;;;1728039;28;20204;-82
2023/08/20 01:17:30;;;;;;;0.00;0.00;;;;;;;;;;1731001;28;20633;-82
2023/08/20 01:18:21;;;;;;;0.00;0.00;;;;;;;;;;1729970;28;20592;-82
2023/08/20 01:19:16;;;;;;;0.00;0.00;;;;;;;;;;1729659;28;20217;-82
2023/08/20 01:20:10;;;;;;;0.00;0.00;;;;;;;;;;1727797;28;20222;-82
2023/08/20 01:21:05;;;;;;;0.00;0.00;;;;;;;;;;1730697;28;20231;-82
2023/08/20 01:22:01;;;;;;;0.00;0.00;;;;;;;;;;1728851;28;20470;-82
2023/08/20 01:23:00;;;;;;;0.00;0.00;;;;;;;;;;1729078;28;20291;-83
2023/08/20 01:24:11;;;;;;;0.00;0.00;;;;;;;;;;1729561;28;20724;-83
2023/08/20 01:25:13;;;;;;;0.00;0.00;;;;;;;;;;1727243;28;20640;-83
2023/08/20 01:26:11;;;;;;;0.00;0.00;;;;;;;;;;1730811;28;20681;-80
2023/08/20 01:27:08;;;;;;;0.00;0.00;;;;;;;;;;1728271;28;20631;-80
2023/08/20 01:28:05;;;;;;;0.00;0.00;;;;;;;;;;1728796;28;20176;-82
2023/08/20 01:28:57;;;;;;;0.00;0.00;;;;;;;;;;1730475;28;20231;-82
2023/08/20 01:29:49;;;;;;;0.00;0.00;;;;;;;;;;1727948;28;20657;-82
2023/08/20 01:30:41;;;;;;;0.00;0.00;;;;;;;;;;1728096;28;20243;-82
2023/08/20 01:31:33;;;;;;;0.00;0.00;;;;;;;;;;1727639;28;20204;-82
2023/08/20 01:32:25;;;;;;;0.00;0.00;;;;;;;;;;1727631;28;20622;-83
2023/08/20 01:33:17;;;;;;;0.00;0.00;;;;;;;;;;1727496;28;20243;-83
2023/08/20 01:34:08;;;;;;;0.00;0.00;;;;;;;;;;1729667;28;20208;-83
2023/08/20 01:35:02;;;;;;;0.00;0.00;;;;;;;;;;1729216;28;20570;-83
2023/08/20 01:35:54;;;;;;;0.00;0.00;;;;;;;;;;1726115;28;20327;-83
2023/08/20 01:36:46;;;;;;;0.00;0.00;;;;;;;;;;1727678;28;20205;-83
2023/08/20 01:37:37;;;;;;;0.00;0.00;;;;;;;;;;1728379;28;20232;-83
2023/08/20 01:38:29;;;;;;;0.00;0.00;;;;;;;;;;1727554;28;20232;-83
2023/08/20 01:39:20;;;;;;;0.00;0.00;;;;;;;;;;1730076;28;20254;-82
2023/08/20 01:40:12;;;;;;;0.00;0.00;;;;;;;;;;1726703;28;20208;-82
2023/08/20 01:41:04;;;;;;;0.00;0.00;;;;;;;;;;1726637;28;20240;-82
2023/08/20 01:41:55;;;;;;;0.00;0.00;;;;;;;;;;1727326;28;20291;-82
2023/08/20 01:42:46;;;;;;;0.00;0.00;;;;;;;;;;1727090;28;20606;-82
2023/08/20 01:43:38;;;;;;;0.00;0.00;;;;;;;;;;1729066;28;20235;-82
2023/08/20 01:44:30;;;;;;;0.00;0.00;;;;;;;;;;1729686;28;20258;-83
2023/08/20 01:45:22;;;;;;;0.00;0.00;;;;;;;;;;1729084;28;20275;-82
2023/08/20 01:46:14;;;;;;;0.00;0.00;;;;;;;;;;1732733;28;20219;-82
2023/08/20 01:47:05;;;;;;;0.00;0.00;;;;;;;;;;1726706;28;20218;-81
2023/08/20 01:47:57;;;;;;;0.00;0.00;;;;;;;;;;1733764;28;20207;-81
2023/08/20 01:48:48;;;;;;;0.00;0.00;;;;;;;;;;1730557;28;20299;-81
2023/08/20 01:49:39;;;;;;;0.00;0.00;;;;;;;;;;1729248;28;20204;-81
2023/08/20 01:50:31;;;;;;;0.00;0.00;;;;;;;;;;1729627;28;20208;-82
2023/08/20 01:51:22;;;;;;;0.00;0.00;;;;;;;;;;1731429;28;20250;-81
2023/08/20 01:52:13;;;;;;;0.00;0.00;;;;;;;;;;1728677;28;20204;-81
2023/08/20 01:53:05;;;;;;;0.00;0.00;;;;;;;;;;1729253;28;20196;-81
2023/08/20 01:53:56;;;;;;;0.00;0.00;;;;;;;;;;1740238;28;20329;-81
2023/08/20 01:54:48;;;;;;;0.00;0.00;;;;;;;;;;1740755;28;20347;-81
2023/08/20 01:55:40;;;;;;;0.00;0.00;;;;;;;;;;1738169;28;20231;-81
2023/08/20 01:56:31;;;;;;;0.00;0.00;;;;;;;;;;1740664;28;20359;-81
2023/08/20 01:57:23;;;;;;;0.00;0.00;;;;;;;;;;1741113;28;20215;-81
2023/08/20 01:58:15;;;;;;;0.00;0.00;;;;;;;;;;1741628;28;21592;-81
2023/08/20 01:59:07;;;;;;;0.00;0.00;;;;;;;;;;1745261;28;20203;-81
2023/08/20 01:59:59;;;;;;;0.00;0.00;;;;;;;;;;1742608;28;20235;-82
2023/08/20 02:00:50;;;;;;;0.00;0.00;;;;;;;;;;1739156;28;20273;-82
2023/08/20 02:01:42;;;;;;;0.00;0.00;;;;;;;;;;1741425;28;20592;-82
2023/08/20 02:02:34;;;;;;;0.00;0.00;;;;;;;;;;1744181;28;20530;-81
2023/08/20 02:03:25;;;;;;;0.00;0.00;;;;;;;;;;1742292;28;20698;-81
2023/08/20 02:04:17;;;;;;;0.00;0.00;;;;;;;;;;1740801;28;20203;-81
2023/08/20 02:05:10;;;;;;;0.00;0.00;;;;;;;;;;1740992;28;20350;-81
2023/08/20 02:06:02;;;;;;;0.00;0.00;;;;;;;;;;1742648;28;20230;-81
2023/08/20 02:06:53;;;;;;;0.00;0.00;;;;;;;;;;1741084;28;20234;-81
2023/08/20 02:07:44;;;;;;;0.00;0.00;;;;;;;;;;1741563;28;20488;-81
2023/08/20 02:08:36;;;;;;;0.00;0.00;;;;;;;;;;1742262;28;20195;-81
2023/08/20 02:09:27;;;;;;;0.00;0.00;;;;;;;;;;1743605;28;20317;-82
2023/08/20 02:10:18;;;;;;;0.00;0.00;;;;;;;;;;1743313;28;20605;-81
2023/08/20 02:11:10;;;;;;;0.00;0.00;;;;;;;;;;1741106;28;20592;-81
2023/08/20 02:12:01;;;;;;;0.00;0.00;;;;;;;;;;1745587;28;20229;-81
2023/08/20 02:12:52;;;;;;;0.00;0.00;;;;;;;;;;1742896;28;20222;-81
2023/08/20 02:13:44;;;;;;;0.00;0.00;;;;;;;;;;1745145;28;20289;-81
2023/08/20 02:14:36;;;;;;;0.00;0.00;;;;;;;;;;1744346;28;20234;-81
2023/08/20 02:15:28;;;;;;;0.00;0.00;;;;;;;;;;1743227;28;20209;-81
2023/08/20 02:16:20;;;;;;;0.00;0.00;;;;;;;;;;1737431;28;20217;-82
2023/08/20 02:17:12;;;;;;;0.00;0.00;;;;;;;;;;1742835;28;20207;-81
2023/08/20 02:18:04;;;;;;;0.00;0.00;;;;;;;;;;1742154;28;20217;-81
2023/08/20 02:18:55;;;;;;;0.00;0.00;;;;;;;;;;1743770;28;20199;-81
2023/08/20 02:19:46;;;;;;;0.00;0.00;;;;;;;;;;1742791;28;20199;-81
2023/08/20 02:20:38;;;;;;;0.00;0.00;;;;;;;;;;1743279;28;20236;-81
2023/08/20 02:21:29;;;;;;;0.00;0.00;;;;;;;;;;1742256;28;20582;-81
2023/08/20 02:22:21;;;;;;;0.00;0.00;;;;;;;;;;1741917;28;20242;-81
2023/08/20 02:23:13;;;;;;;0.00;0.00;;;;;;;;;;1742136;28;20549;-82
2023/08/20 02:24:04;;;;;;;0.00;0.00;;;;;;;;;;1742846;28;20249;-81
2023/08/20 02:24:55;;;;;;;0.00;0.00;;;;;;;;;;1739531;28;20549;-81
2023/08/20 02:25:48;;;;;;;0.00;0.00;;;;;;;;;;1741030;28;20712;-81
2023/08/20 02:26:39;;;;;;;0.00;0.00;;;;;;;;;;1727001;28;20607;-80
2023/08/20 02:27:31;;;;;;;0.00;0.00;;;;;;;;;;1734580;28;20613;-80
2023/08/20 02:28:22;;;;;;;0.00;0.00;;;;;;;;;;1736163;28;20687;-80
2023/08/20 02:29:14;;;;;;;0.00;0.00;;;;;;;;;;1737973;28;20222;-80
2023/08/20 02:30:06;;;;;;;0.00;0.00;;;;;;;;;;1737377;28;20258;-80
2023/08/20 02:30:59;;;;;;;0.00;0.00;;;;;;;;;;1733323;28;20289;-80
2023/08/20 02:31:51;;;;;;;0.00;0.00;;;;;;;;;;1734250;28;20207;-81
2023/08/20 02:32:42;;;;;;;0.00;0.00;;;;;;;;;;1739474;28;20249;-80
2023/08/20 02:33:34;;;;;;;0.00;0.00;;;;;;;;;;1737439;28;20290;-80
2023/08/20 02:34:26;;;;;;;0.00;0.00;;;;;;;;;;1737220;28;20285;-80
2023/08/20 02:35:17;;;;;;;0.00;0.00;;;;;;;;;;1736352;28;20279;-81
2023/08/20 02:36:08;;;;;;;0.00;0.00;;;;;;;;;;1734553;28;20775;-81
2023/08/20 02:37:00;;;;;;;0.00;0.00;;;;;;;;;;1737240;28;20199;-81
2023/08/20 02:37:51;;;;;;;0.00;0.00;;;;;;;;;;1734471;28;20239;-81
2023/08/20 02:38:43;;;;;;;0.00;0.00;;;;;;;;;;1734418;28;20241;-80
2023/08/20 02:39:34;;;;;;;0.00;0.00;;;;;;;;;;1734509;28;20231;-79
2023/08/20 02:40:25;;;;;;;0.00;0.00;;;;;;;;;;1736180;28;20689;-79
2023/08/20 02:41:17;;;;;;;0.00;0.00;;;;;;;;;;1734475;28;20253;-79
2023/08/20 02:42:08;;;;;;;0.00;0.00;;;;;;;;;;1735415;28;20242;-79
2023/08/20 02:42:59;;;;;;;0.00;0.00;;;;;;;;;;1735168;28;20212;-80
2023/08/20 02:43:51;;;;;;;0.00;0.00;;;;;;;;;;1733836;28;20207;-82
2023/08/20 02:44:42;;;;;;;0.00;0.00;;;;;;;;;;1734929;28;20250;-81
2023/08/20 02:45:33;;;;;;;0.00;0.00;;;;;;;;;;1733095;28;20204;-80
2023/08/20 02:46:27;;;;;;;0.00;0.00;;;;;;;;;;1734380;28;20208;-81
2023/08/20 02:47:18;;;;;;;0.00;0.00;;;;;;;;;;1733674;28;20214;-80
2023/08/20 02:48:09;;;;;;;0.00;0.00;;;;;;;;;;1733902;28;20239;-80
2023/08/20 02:49:01;;;;;;;0.00;0.00;;;;;;;;;;1734169;28;20523;-80
2023/08/20 02:49:52;;;;;;;0.00;0.00;;;;;;;;;;1734319;28;20285;-80
2023/08/20 02:50:44;;;;;;;0.00;0.00;;;;;;;;;;1735324;28;20324;-80
2023/08/20 02:51:35;;;;;;;0.00;0.00;;;;;;;;;;1734181;28;20239;-81
2023/08/20 02:52:27;;;;;;;0.00;0.00;;;;;;;;;;1733893;28;20204;-80
2023/08/20 02:53:18;;;;;;;0.00;0.00;;;;;;;;;;1731075;28;20752;-80
2023/08/20 02:54:09;;;;;;;0.00;0.00;;;;;;;;;;1730960;28;20232;-80
2023/08/20 02:55:04;;;;;;;0.00;0.00;;;;;;;;;;1729285;28;20371;-80
2023/08/20 02:55:56;;;;;;;0.00;0.00;;;;;;;;;;1729963;28;20243;-81
2023/08/20 02:56:48;;;;;;;0.00;0.00;;;;;;;;;;1731196;28;20203;-81
2023/08/20 02:57:39;;;;;;;0.00;0.00;;;;;;;;;;1732302;28;20231;-80
2023/08/20 02:58:30;;;;;;;0.00;0.00;;;;;;;;;;1731492;28;20308;-80
2023/08/20 02:59:22;;;;;;;0.00;0.00;;;;;;;;;;1730214;28;20593;-80
2023/08/20 03:00:13;;;;;;;0.00;0.00;;;;;;;;;;1729993;28;20235;-80
2023/08/20 03:01:04;;;;;;;0.00;0.00;;;;;;;;;;1730095;28;20250;-80
2023/08/20 03:01:58;;;;;;;0.00;0.00;;;;;;;;;;1730032;28;20318;-80
2023/08/20 03:02:49;;;;;;;0.00;0.00;;;;;;;;;;1733464;28;20295;-80
2023/08/20 03:03:41;;;;;;;0.00;0.00;;;;;;;;;;1730156;28;20215;-80
2023/08/20 03:04:33;;;;;;;0.00;0.00;;;;;;;;;;1729890;28;20200;-80
2023/08/20 03:05:24;;;;;;;0.00;0.00;;;;;;;;;;1729077;28;20545;-80
2023/08/20 03:06:16;;;;;;;0.00;0.00;;;;;;;;;;1732894;28;20203;-80
2023/08/20 03:07:07;;;;;;;0.00;0.00;;;;;;;;;;1730062;28;20611;-80
2023/08/20 03:07:58;;;;;;;0.00;0.00;;;;;;;;;;1733248;28;20203;-80
2023/08/20 03:08:50;;;;;;;0.00;0.00;;;;;;;;;;1730037;28;20215;-80
2023/08/20 03:09:41;;;;;;;0.00;0.00;;;;;;;;;;1729800;28;20242;-80
2023/08/20 03:10:33;;;;;;;0.00;0.00;;;;;;;;;;1728939;28;20626;-80
2023/08/20 03:11:24;;;;;;;0.00;0.00;;;;;;;;;;1731922;28;20195;-81
2023/08/20 03:12:16;;;;;;;0.00;0.00;;;;;;;;;;1730257;28;20251;-80
2023/08/20 03:13:07;;;;;;;0.00;0.00;;;;;;;;;;1731922;28;20335;-81
2023/08/20 03:13:58;;;;;;;0.00;0.00;;;;;;;;;;1731528;28;20231;-81
2023/08/20 03:14:51;;;;;;;0.00;0.00;;;;;;;;;;1727388;28;20215;-81
2023/08/20 03:15:42;;;;;;;0.00;0.00;;;;;;;;;;1730180;28;20684;-80
2023/08/20 03:16:33;;;;;;;0.00;0.00;;;;;;;;;;1731560;28;20201;-80
2023/08/20 03:17:26;;;;;;;0.00;0.00;;;;;;;;;;1728796;28;20215;-80
2023/08/20 03:18:17;;;;;;;0.00;0.00;;;;;;;;;;1728493;28;20242;-80
2023/08/20 03:19:09;;;;;;;0.00;0.00;;;;;;;;;;1732004;28;20240;-80
2023/08/20 03:20:05;;;;;;;0.00;0.00;;;;;;;;;;1726766;28;20224;-80
2023/08/20 03:20:57;;;;;;;0.00;0.00;;;;;;;;;;1730176;28;20569;-80
2023/08/20 03:21:49;;;;;;;0.00;0.00;;;;;;;;;;1731442;28;20211;-81
2023/08/20 03:22:40;;;;;;;0.00;0.00;;;;;;;;;;1727935;28;20204;-81
2023/08/20 03:23:32;;;;;;;0.00;0.00;;;;;;;;;;1730360;28;20606;-81
2023/08/20 03:24:23;;;;;;;0.00;0.00;;;;;;;;;;1730454;28;20641;-81
2023/08/20 03:25:14;;;;;;;0.00;0.00;;;;;;;;;;1728920;28;20307;-81
2023/08/20 03:26:06;;;;;;;0.00;0.00;;;;;;;;;;1732680;28;20218;-81
2023/08/20 03:26:57;;;;;;;0.00;0.00;;;;;;;;;;1730031;28;20266;-80
2023/08/20 03:27:48;;;;;;;0.00;0.00;;;;;;;;;;1727528;28;20283;-80
2023/08/20 03:28:40;;;;;;;0.00;0.00;;;;;;;;;;1729211;28;20681;-80
2023/08/20 03:29:31;;;;;;;0.00;0.00;;;;;;;;;;1729807;28;20249;-80
2023/08/20 03:30:23;;;;;;;0.00;0.00;;;;;;;;;;1728690;28;20210;-80
2023/08/20 03:31:14;;;;;;;0.00;0.00;;;;;;;;;;1732719;28;20949;-80
2023/08/20 03:32:06;;;;;;;0.00;0.00;;;;;;;;;;1730284;28;20274;-80
2023/08/20 03:32:59;;;;;;;0.00;0.00;;;;;;;;;;1727352;28;20215;-80
2023/08/20 03:33:50;;;;;;;0.00;0.00;;;;;;;;;;1729164;28;20239;-80
2023/08/20 03:34:41;;;;;;;0.00;0.00;;;;;;;;;;1729854;28;20227;-80
2023/08/20 03:35:33;;;;;;;0.00;0.00;;;;;;;;;;1729408;28;20204;-80
2023/08/20 03:36:24;;;;;;;0.00;0.00;;;;;;;;;;1732465;28;20211;-80
2023/08/20 03:37:16;;;;;;;0.00;0.00;;;;;;;;;;1730515;28;20714;-80
2023/08/20 03:38:07;;;;;;;0.00;0.00;;;;;;;;;;1727642;28;20295;-80
2023/08/20 03:39:00;;;;;;;0.00;0.00;;;;;;;;;;1730782;28;20214;-80
2023/08/20 03:39:51;;;;;;;0.00;0.00;;;;;;;;;;1728546;28;20204;-80
2023/08/20 03:40:45;;;;;;;0.00;0.00;;;;;;;;;;1730758;28;20236;-80
2023/08/20 03:41:36;;;;;;;0.00;0.00;;;;;;;;;;1730969;28;20204;-80
2023/08/20 03:42:27;;;;;;;0.00;0.00;;;;;;;;;;1729263;28;20224;-79
2023/08/20 03:43:19;;;;;;;0.00;0.00;;;;;;;;;;1728087;28;20566;-80
2023/08/20 03:44:10;;;;;;;0.00;0.00;;;;;;;;;;1731207;28;20677;-80
2023/08/20 03:45:08;;;;;;;0.00;0.00;;;;;;;;;;1726333;28;20204;-80
2023/08/20 03:45:59;;;;;;;0.00;0.00;;;;;;;;;;1730040;28;20235;-80
2023/08/20 03:46:51;;;;;;;0.00;0.00;;;;;;;;;;1729203;28;20693;-80
2023/08/20 03:47:44;;;;;;;0.00;0.00;;;;;;;;;;1726812;28;20200;-80
2023/08/20 03:48:36;;;;;;;0.00;0.00;;;;;;;;;;1729184;28;20195;-80
2023/08/20 03:49:28;;;;;;;0.00;0.00;;;;;;;;;;1730495;28;20245;-81
2023/08/20 03:50:19;;;;;;;0.00;0.00;;;;;;;;;;1729399;28;20211;-81
2023/08/20 03:51:11;;;;;;;0.00;0.00;;;;;;;;;;1733456;28;20262;-81
2023/08/20 03:52:02;;;;;;;0.00;0.00;;;;;;;;;;1730779;28;20326;-81
2023/08/20 03:52:53;;;;;;;0.00;0.00;;;;;;;;;;1728531;28;20593;-81
2023/08/20 03:53:45;;;;;;;0.00;0.00;;;;;;;;;;1729852;28;20673;-81
2023/08/20 03:54:36;;;;;;;0.00;0.00;;;;;;;;;;1730563;28;20243;-80
2023/08/20 03:55:29;;;;;;;0.00;0.00;;;;;;;;;;1727478;28;20287;-81
2023/08/20 03:56:21;;;;;;;0.00;0.00;;;;;;;;;;1731340;28;20518;-80
2023/08/20 03:57:12;;;;;;;0.00;0.00;;;;;;;;;;1735721;28;20196;-81
2023/08/20 03:58:03;;;;;;;0.00;0.00;;;;;;;;;;1733603;28;20714;-81
2023/08/20 03:58:55;;;;;;;0.00;0.00;;;;;;;;;;1734215;28;20210;-80
2023/08/20 03:59:47;;;;;;;0.00;0.00;;;;;;;;;;1733819;28;20662;-80
2023/08/20 04:00:38;;;;;;;0.00;0.00;;;;;;;;;;1723647;28;20236;-81
2023/08/20 04:01:30;;;;;;;0.00;0.00;;;;;;;;;;1730567;28;20214;-81
2023/08/20 04:02:21;;;;;;;0.00;0.00;;;;;;;;;;1729756;28;20646;-81
2023/08/20 04:03:14;;;;;;;0.00;0.00;;;;;;;;;;1726660;28;20214;-81
2023/08/20 04:04:07;;;;;;;0.00;0.00;;;;;;;;;;1734359;28;20199;-80
2023/08/20 04:04:58;;;;;;;0.00;0.00;;;;;;;;;;1734985;28;20204;-80
2023/08/20 04:05:51;;;;;;;0.00;0.00;;;;;;;;;;1733978;28;20235;-80
2023/08/20 04:06:42;;;;;;;0.00;0.00;;;;;;;;;;1730446;28;20637;-80
2023/08/20 04:07:33;;;;;;;0.00;0.00;;;;;;;;;;1728185;28;20231;-81
2023/08/20 04:08:25;;;;;;;0.00;0.00;;;;;;;;;;1731631;28;20536;-81
2023/08/20 04:09:16;;;;;;;0.00;0.00;;;;;;;;;;1735985;28;20601;-80
2023/08/20 04:10:09;;;;;;;0.00;0.00;;;;;;;;;;1734019;28;20231;-80
2023/08/20 04:11:02;;;;;;;0.00;0.00;;;;;;;;;;1731875;28;20300;-80
2023/08/20 04:11:53;;;;;;;0.00;0.00;;;;;;;;;;1730193;28;20303;-80
2023/08/20 04:12:45;;;;;;;0.00;0.00;;;;;;;;;;1727319;28;20636;-80
2023/08/20 04:13:36;;;;;;;0.00;0.00;;;;;;;;;;1735979;28;20636;-80
2023/08/20 04:14:28;;;;;;;0.00;0.00;;;;;;;;;;1733586;28;20204;-80
2023/08/20 04:15:19;;;;;;;0.00;0.00;;;;;;;;;;1732072;28;20397;-81
2023/08/20 04:16:11;;;;;;;0.00;0.00;;;;;;;;;;1733604;28;20191;-81
2023/08/20 04:17:02;;;;;;;0.00;0.00;;;;;;;;;;1730169;28;20308;-81
2023/08/20 04:17:53;;;;;;;0.00;0.00;;;;;;;;;;1733468;28;20309;-81
2023/08/20 04:18:45;;;;;;;0.00;0.00;;;;;;;;;;1735207;28;20261;-81
2023/08/20 04:19:38;;;;;;;0.00;0.00;;;;;;;;;;1737618;28;20379;-80
2023/08/20 04:20:29;;;;;;;0.00;0.00;;;;;;;;;;1730118;28;20212;-81
2023/08/20 04:21:23;;;;;;;0.00;0.00;;;;;;;;;;1731651;28;20593;-84
2023/08/20 04:22:14;;;;;;;0.00;0.00;;;;;;;;;;1730941;28;20219;-82
2023/08/20 04:23:05;;;;;;;0.00;0.00;;;;;;;;;;1731367;28;20536;-81
2023/08/20 04:23:57;;;;;;;0.00;0.00;;;;;;;;;;1734370;28;20423;-81
2023/08/20 04:24:48;;;;;;;0.00;0.00;;;;;;;;;;1728228;28;20484;-81
2023/08/20 04:25:41;;;;;;;0.00;0.00;;;;;;;;;;1725091;28;20720;-81
2023/08/20 04:26:32;;;;;;;0.00;0.00;;;;;;;;;;1725215;28;20276;-80
2023/08/20 04:27:23;;;;;;;0.00;0.00;;;;;;;;;;1730568;28;20649;-81
2023/08/20 04:28:15;;;;;;;0.00;0.00;;;;;;;;;;1725362;28;20212;-81
2023/08/20 04:29:06;;;;;;;0.00;0.00;;;;;;;;;;1729764;28;20219;-82
2023/08/20 04:29:57;;;;;;;0.00;0.00;;;;;;;;;;1731000;28;20200;-82
2023/08/20 04:30:49;;;;;;;0.00;0.00;;;;;;;;;;1734528;28;20234;-82
2023/08/20 04:31:41;;;;;;;0.00;0.00;;;;;;;;;;1732449;28;20204;-82
2023/08/20 04:32:32;;;;;;;0.00;0.00;;;;;;;;;;1735021;28;20200;-82
2023/08/20 04:33:24;;;;;;;0.00;0.00;;;;;;;;;;1735365;28;20203;-82
2023/08/20 04:34:15;;;;;;;0.00;0.00;;;;;;;;;;1734234;28;20211;-81
2023/08/20 04:35:08;;;;;;;0.00;0.00;;;;;;;;;;1737424;28;20203;-81
2023/08/20 04:36:00;;;;;;;0.00;0.00;;;;;;;;;;1734306;28;20238;-81
2023/08/20 04:36:51;;;;;;;0.00;0.00;;;;;;;;;;1737630;28;20210;-81
2023/08/20 04:37:42;;;;;;;0.00;0.00;;;;;;;;;;1735584;28;20199;-81
2023/08/20 04:38:34;;;;;;;0.00;0.00;;;;;;;;;;1734778;28;20202;-81
2023/08/20 04:39:25;;;;;;;0.00;0.00;;;;;;;;;;1736032;28;20254;-81
2023/08/20 04:40:17;;;;;;;0.00;0.00;;;;;;;;;;1736723;28;20195;-82
2023/08/20 04:41:08;;;;;;;0.00;0.00;;;;;;;;;;1735781;28;20708;-82
2023/08/20 04:42:00;;;;;;;0.00;0.00;;;;;;;;;;1734738;28;20389;-81
2023/08/20 04:42:52;;;;;;;0.00;0.00;;;;;;;;;;1735255;28;20234;-81
2023/08/20 04:43:43;;;;;;;0.00;0.00;;;;;;;;;;1735770;28;20286;-81
2023/08/20 04:44:35;;;;;;;0.00;0.00;;;;;;;;;;1738317;28;20203;-82
2023/08/20 04:45:26;;;;;;;0.00;0.00;;;;;;;;;;1736353;28;20234;-82
2023/08/20 04:46:18;;;;;;;0.00;0.00;;;;;;;;;;1734472;28;20215;-81
2023/08/20 04:47:12;;;;;;;0.00;0.00;;;;;;;;;;1735211;28;20203;-81
2023/08/20 04:48:03;;;;;;;0.00;0.00;;;;;;;;;;1734267;28;20814;-81
2023/08/20 04:48:54;;;;;;;0.00;0.00;;;;;;;;;;1734798;28;20565;-81
2023/08/20 04:49:46;;;;;;;0.00;0.00;;;;;;;;;;1734506;28;20204;-81
2023/08/20 04:50:39;;;;;;;0.00;0.00;;;;;;;;;;1733084;28;20326;-81
2023/08/20 04:51:30;;;;;;;0.00;0.00;;;;;;;;;;1734662;28;20226;-81
2023/08/20 04:52:22;;;;;;;0.00;0.00;;;;;;;;;;1733226;28;20227;-81
2023/08/20 04:53:13;;;;;;;0.00;0.00;;;;;;;;;;1734173;28;20704;-81
2023/08/20 04:54:04;;;;;;;0.00;0.00;;;;;;;;;;1736247;28;20240;-81
2023/08/20 04:54:56;;;;;;;0.00;0.00;;;;;;;;;;1735367;28;20230;-81
2023/08/20 04:55:47;;;;;;;0.00;0.00;;;;;;;;;;1733400;28;20266;-81
2023/08/20 04:56:39;;;;;;;0.00;0.00;;;;;;;;;;1734989;28;20566;-81
2023/08/20 04:57:30;;;;;;;0.00;0.00;;;;;;;;;;1735749;28;20990;-82
2023/08/20 04:58:22;;;;;;;0.00;0.00;;;;;;;;;;1734700;28;20290;-81
2023/08/20 04:59:13;;;;;;;0.00;0.00;;;;;;;;;;1734809;28;20207;-81
2023/08/20 05:00:06;;;;;;;0.00;0.00;;;;;;;;;;1734497;28;20238;-81
2023/08/20 05:00:57;;;;;;;0.00;0.00;;;;;;;;;;1729944;28;20327;-81
2023/08/20 05:01:48;;;;;;;0.00;0.00;;;;;;;;;;1734447;28;20288;-81
2023/08/20 05:02:40;;;;;;;0.00;0.00;;;;;;;;;;1735624;28;20800;-81
2023/08/20 05:03:32;;;;;;;0.00;0.00;;;;;;;;;;1735483;28;20343;-81
2023/08/20 05:04:23;;;;;;;0.00;0.00;;;;;;;;;;1734353;28;20203;-82
2023/08/20 05:05:15;;;;;;;0.00;0.00;;;;;;;;;;1734860;28;20211;-82
2023/08/20 05:06:07;;;;;;;0.00;0.00;;;;;;;;;;1735259;28;20236;-82
2023/08/20 05:06:58;;;;;;;0.00;0.00;;;;;;;;;;1734870;28;20219;-81
2023/08/20 05:07:50;;;;;;;0.00;0.00;;;;;;;;;;1735302;28;20219;-81
2023/08/20 05:08:42;;;;;;;0.00;0.00;;;;;;;;;;1734813;28;20242;-81
2023/08/20 05:09:33;;;;;;;0.00;0.00;;;;;;;;;;1734090;28;20250;-81
2023/08/20 05:10:25;;;;;;;0.00;0.00;;;;;;;;;;1734902;28;20202;-81
2023/08/20 05:11:17;;;;;;;0.00;0.00;;;;;;;;;;1734439;28;20239;-82
2023/08/20 05:12:08;;;;;;;0.00;0.00;;;;;;;;;;1733154;28;20294;-81